Time;durP1;ratioP1;P1;durP2;ratioP2;P2;SDS_P1;SDS_P2;PMS_P1;PMS_P2;Temp;Humidity;BMP_temperature;BMP_pressure;BME280_temperature;BME280_humidity;BME280_pressure;Samples;Min_cycle;Max_cycle;Signal;HPM_P1;HPM_P2
2021/05/31 00:01:38;;;;;;;4.53;3.03;;;20.50;61.00;;;;;;5053013;28;20037;-60
2021/05/31 00:04:04;;;;;;;4.15;3.03;;;20.20;60.70;;;;;;5053596;28;20043;-59
2021/05/31 00:06:48;;;;;;;3.67;3.35;;;20.20;60.70;;;;;;5053805;28;20033;-60
2021/05/31 00:09:14;;;;;;;3.85;3.42;;;20.50;60.80;;;;;;5052477;28;20072;-60
2021/05/31 00:11:40;;;;;;;4.53;3.38;;;20.20;60.70;;;;;;5053763;28;20479;-60
2021/05/31 00:14:06;;;;;;;5.57;3.28;;;20.20;60.80;;;;;;5053633;28;20028;-60
2021/05/31 00:16:32;;;;;;;4.15;3.40;;;20.30;60.80;;;;;;5053885;28;20086;-60
2021/05/31 00:18:57;;;;;;;3.40;3.10;;;20.20;61.40;;;;;;5053561;28;20052;-59
2021/05/31 00:21:23;;;;;;;4.57;3.65;;;20.30;60.80;;;;;;5053418;28;20025;-59
2021/05/31 00:23:49;;;;;;;3.47;3.15;;;20.50;60.80;;;;;;5052012;28;20128;-59
2021/05/31 00:26:17;;;;;;;4.68;3.35;;;20.20;60.70;;;;;;5052745;28;20017;-59
2021/05/31 00:28:44;;;;;;;3.75;3.30;;;20.50;60.90;;;;;;5053691;28;20423;-60
2021/05/31 00:31:11;;;;;;;5.28;3.30;;;20.30;60.70;;;;;;5053243;28;20033;-59
2021/05/31 00:33:38;;;;;;;3.13;2.83;;;20.30;60.70;;;;;;5053284;28;20460;-59
2021/05/31 00:36:04;;;;;;;4.38;3.55;;;20.60;60.80;;;;;;5051903;28;20028;-59
2021/05/31 00:38:29;;;;;;;4.75;3.03;;;20.40;60.80;;;;;;5053165;28;20056;-60
2021/05/31 00:40:55;;;;;;;3.40;3.00;;;20.30;60.60;;;;;;5053143;28;20036;-60
2021/05/31 00:43:21;;;;;;;3.78;2.90;;;20.20;60.60;;;;;;5053148;28;20422;-59
2021/05/31 00:45:47;;;;;;;4.85;2.95;;;20.30;60.70;;;;;;5053366;28;20100;-59
2021/05/31 00:48:14;;;;;;;6.00;3.17;;;20.40;60.70;;;;;;5053073;28;20391;-59
2021/05/31 00:50:40;;;;;;;3.67;3.35;;;20.10;60.50;;;;;;5053063;28;20521;-60
2021/05/31 00:53:06;;;;;;;4.25;3.20;;;20.40;60.70;;;;;;5053342;28;20025;-60
2021/05/31 00:55:31;;;;;;;3.20;3.00;;;20.60;60.70;;;;;;5053233;28;20040;-59
2021/05/31 00:57:58;;;;;;;4.32;3.10;;;20.40;60.60;;;;;;5052896;28;20040;-59
2021/05/31 01:00:26;;;;;;;3.72;2.92;;;20.10;60.50;;;;;;5053181;28;20028;-60
2021/05/31 01:02:52;;;;;;;3.55;3.25;;;20.30;60.60;;;;;;5051562;28;20062;-60
2021/05/31 01:05:18;;;;;;;4.70;3.50;;;20.10;60.40;;;;;;5052655;28;20122;-59
2021/05/31 01:07:49;;;;;;;3.63;3.33;;;20.20;60.50;;;;;;5053014;28;20459;-59
2021/05/31 01:10:22;;;;;;;3.58;3.28;;;20.20;60.50;;;;;;5052957;28;20025;-59
2021/05/31 01:13:18;;;;;;;4.47;3.85;;;20.30;61.20;;;;;;5051747;28;20025;-59
2021/05/31 01:15:58;;;;;;;3.67;3.40;;;20.30;61.10;;;;;;5052992;28;20024;-59
2021/05/31 01:18:28;;;;;;;3.40;3.17;;;20.10;60.30;;;;;;5052871;28;20029;-59
2021/05/31 01:21:15;;;;;;;3.40;3.10;;;20.10;60.40;;;;;;5052888;28;20029;-59
2021/05/31 01:23:46;;;;;;;3.70;3.40;;;20.30;60.50;;;;;;5052617;28;20029;-59
2021/05/31 01:26:20;;;;;;;3.72;3.22;;;20.30;60.40;;;;;;5052580;28;20021;-59
2021/05/31 01:29:06;;;;;;;3.55;3.17;;;20.00;60.20;;;;;;5052483;28;20067;-59
2021/05/31 01:31:57;;;;;;;5.88;3.15;;;20.00;60.20;;;;;;5052685;28;20029;-59
2021/05/31 01:34:27;;;;;;;3.33;2.95;;;20.30;60.40;;;;;;5052506;28;20111;-60
2021/05/31 01:37:14;;;;;;;3.45;3.00;;;20.30;60.40;;;;;;5054027;28;20021;-59
2021/05/31 01:39:43;;;;;;;5.68;3.40;;;20.30;60.30;;;;;;5056583;28;20471;-59
2021/05/31 01:42:10;;;;;;;4.05;3.53;;;21.00;60.80;;;;;;5055543;28;20108;-59
2021/05/31 01:44:36;;;;;;;3.70;3.10;;;20.30;60.40;;;;;;5056470;28;20472;-59
2021/05/31 01:47:01;;;;;;;3.85;3.10;;;20.30;60.30;;;;;;5056695;28;20025;-59
2021/05/31 01:49:28;;;;;;;5.78;3.30;;;20.30;60.30;;;;;;5056466;28;20641;-60
2021/05/31 01:51:54;;;;;;;4.38;3.10;;;20.00;60.10;;;;;;5056636;28;20021;-60
2021/05/31 01:54:22;;;;;;;3.78;3.10;;;20.30;60.20;;;;;;5056307;28;20017;-59
2021/05/31 01:56:50;;;;;;;3.92;3.30;;;20.30;60.30;;;;;;5056404;28;20399;-59
2021/05/31 01:59:18;;;;;;;3.30;2.70;;;20.20;60.20;;;;;;5056275;28;20029;-59
2021/05/31 02:01:46;;;;;;;4.18;3.13;;;19.90;60.00;;;;;;5056517;28;20095;-60
2021/05/31 02:04:11;;;;;;;3.80;3.13;;;20.20;60.10;;;;;;5055994;28;20439;-60
2021/05/31 02:06:37;;;;;;;5.45;4.07;;;20.00;60.30;;;;;;5056208;28;20040;-59
2021/05/31 02:09:04;;;;;;;3.40;3.10;;;20.00;60.00;;;;;;5056186;28;20063;-59
2021/05/31 02:12:01;;;;;;;4.03;3.58;;;20.20;60.10;;;;;;5055965;28;20048;-59
2021/05/31 02:14:46;;;;;;;3.80;3.40;;;20.20;60.00;;;;;;5056327;28;20029;-59
2021/05/31 02:17:31;;;;;;;3.58;3.22;;;20.20;60.00;;;;;;5056000;28;20475;-60
2021/05/31 02:20:03;;;;;;;3.90;3.45;;;20.20;60.00;;;;;;5056019;28;20075;-59
2021/05/31 02:22:32;;;;;;;5.63;3.42;;;20.00;59.90;;;;;;5054648;28;20073;-59
2021/05/31 02:24:57;;;;;;;3.22;2.92;;;20.20;59.90;;;;;;5055920;28;20029;-59
2021/05/31 02:27:24;;;;;;;3.78;3.42;;;20.20;59.90;;;;;;5054577;28;20199;-60
2021/05/31 02:29:50;;;;;;;6.28;3.25;;;19.90;60.40;;;;;;5055720;28;20143;-59
2021/05/31 02:32:17;;;;;;;3.40;3.10;;;19.90;59.80;;;;;;5055616;28;20067;-60
2021/05/31 02:34:42;;;;;;;3.55;3.05;;;20.20;59.90;;;;;;5054493;28;20029;-60
2021/05/31 02:37:11;;;;;;;3.20;2.90;;;19.90;59.80;;;;;;5055573;28;20029;-59
2021/05/31 02:39:37;;;;;;;4.35;2.95;;;19.90;59.70;;;;;;5055578;28;20385;-59
2021/05/31 02:42:03;;;;;;;3.40;3.08;;;20.30;59.90;;;;;;5055748;28;20040;-60
2021/05/31 02:44:29;;;;;;;4.22;3.35;;;20.20;59.90;;;;;;5055371;28;20073;-60
2021/05/31 02:46:54;;;;;;;3.78;3.25;;;20.20;59.80;;;;;;5055314;28;20021;-59
2021/05/31 02:49:20;;;;;;;3.78;2.83;;;20.20;59.80;;;;;;5054941;28;20052;-60
2021/05/31 02:51:46;;;;;;;2.97;2.78;;;20.10;59.90;;;;;;5055443;28;20021;-59
2021/05/31 02:54:12;;;;;;;5.28;3.42;;;20.30;59.80;;;;;;5055581;28;20045;-60
2021/05/31 02:56:39;;;;;;;3.15;2.95;;;19.90;59.60;;;;;;5055611;28;20029;-60
2021/05/31 02:59:05;;;;;;;3.35;2.63;;;20.00;59.70;;;;;;5055261;28;20017;-59
2021/05/31 03:01:30;;;;;;;3.53;3.22;;;20.10;59.70;;;;;;5055131;28;20083;-60
2021/05/31 03:03:56;;;;;;;3.38;3.08;;;20.20;59.70;;;;;;5055011;28;20095;-59
2021/05/31 03:06:22;;;;;;;4.82;3.28;;;19.90;59.60;;;;;;5055422;28;20032;-60
2021/05/31 03:08:47;;;;;;;4.13;2.95;;;19.80;59.50;;;;;;5055391;28;20112;-60
2021/05/31 03:11:13;;;;;;;3.10;2.70;;;20.00;83.60;;;;;;5055026;28;20068;-59
2021/05/31 03:13:38;;;;;;;4.60;3.60;;;19.80;59.50;;;;;;5055661;28;20025;-59
2021/05/31 03:16:04;;;;;;;5.32;3.20;;;19.90;59.60;;;;;;5055251;28;20399;-60
2021/05/31 03:18:29;;;;;;;3.15;2.95;;;20.00;59.60;;;;;;5053935;28;20032;-59
2021/05/31 03:20:55;;;;;;;5.10;3.47;;;20.00;59.60;;;;;;5054816;28;20092;-60
2021/05/31 03:23:21;;;;;;;3.53;3.22;;;19.80;59.50;;;;;;5054897;28;20027;-59
2021/05/31 03:25:47;;;;;;;3.45;3.13;;;20.60;59.90;;;;;;5053532;28;20511;-60
2021/05/31 03:28:12;;;;;;;4.05;3.53;;;20.00;59.60;;;;;;5054824;28;20106;-59
2021/05/31 03:30:38;;;;;;;3.58;3.20;;;20.00;59.60;;;;;;5053269;28;20455;-60
2021/05/31 03:33:04;;;;;;;4.25;3.42;;;19.80;59.40;;;;;;5054827;28;20021;-59
2021/05/31 03:35:30;;;;;;;3.88;3.55;;;20.00;59.50;;;;;;5054439;28;20032;-59
2021/05/31 03:37:55;;;;;;;3.45;2.90;;;19.80;59.40;;;;;;5053083;28;20029;-60
2021/05/31 03:40:22;;;;;;;3.70;3.40;;;20.00;59.50;;;;;;5054290;28;20113;-59
2021/05/31 03:42:52;;;;;;;3.75;3.10;;;19.80;59.40;;;;;;5052916;28;20499;-60
2021/05/31 03:45:18;;;;;;;3.60;3.20;;;20.00;59.50;;;;;;5054260;28;20100;-59
2021/05/31 03:47:44;;;;;;;3.67;3.20;;;19.90;59.50;;;;;;5054475;28;20356;-59
2021/05/31 03:50:10;;;;;;;3.33;3.00;;;19.80;59.40;;;;;;5054162;28;20021;-60
2021/05/31 03:52:37;;;;;;;3.58;3.15;;;20.00;59.50;;;;;;5054406;28;20044;-59
2021/05/31 03:55:05;;;;;;;4.35;3.60;;;20.10;59.50;;;;;;5053970;28;20036;-59
2021/05/31 03:57:31;;;;;;;3.10;2.90;;;20.00;59.50;;;;;;5054126;28;20021;-59
2021/05/31 03:59:57;;;;;;;3.25;3.00;;;19.80;59.40;;;;;;5053971;28;20081;-59
2021/05/31 04:02:23;;;;;;;3.70;3.40;;;20.00;59.50;;;;;;5053849;28;20121;-59
2021/05/31 04:04:52;;;;;;;4.78;3.53;;;20.00;59.50;;;;;;5053659;28;20041;-59
2021/05/31 04:12:49;;;;;;;3.75;3.00;;;19.90;59.40;;;;;;5053992;28;20151;-59
2021/05/31 04:15:14;;;;;;;3.90;3.33;;;20.50;59.70;;;;;;5053665;28;20099;-59
2021/05/31 04:17:40;;;;;;;3.53;3.22;;;19.80;59.30;;;;;;5053634;28;20029;-59
2021/05/31 04:20:06;;;;;;;4.10;3.30;;;19.80;59.30;;;;;;5052656;28;20016;-59
2021/05/31 04:22:32;;;;;;;3.33;3.03;;;19.90;59.40;;;;;;5053687;28;20171;-59
2021/05/31 04:24:58;;;;;;;3.55;3.25;;;19.90;59.40;;;;;;5053531;28;20103;-60
2021/05/31 04:27:23;;;;;;;5.68;3.30;;;19.90;59.40;;;;;;5053736;28;20110;-60
2021/05/31 04:29:50;;;;;;;5.25;3.33;;;19.80;59.30;;;;;;5053672;28;20606;-59
2021/05/31 04:32:16;;;;;;;4.50;3.60;;;19.60;59.20;;;;;;5052024;28;20510;-59
2021/05/31 04:34:42;;;;;;;3.88;3.17;;;19.60;59.20;;;;;;5053321;28;20025;-59
2021/05/31 04:37:08;;;;;;;5.03;3.33;;;19.70;59.30;;;;;;5053537;28;20021;-60
2021/05/31 04:39:33;;;;;;;3.15;2.80;;;19.60;59.20;;;;;;5053457;28;20025;-59
2021/05/31 04:41:59;;;;;;;4.03;3.40;;;19.60;59.20;;;;;;5053117;28;20032;-60
2021/05/31 04:44:24;;;;;;;3.53;3.22;;;19.60;59.20;;;;;;5053174;28;20021;-60
2021/05/31 04:46:50;;;;;;;4.28;3.45;;;19.60;59.20;;;;;;5051737;28;20025;-59
2021/05/31 04:49:15;;;;;;;3.75;3.40;;;20.00;59.40;;;;;;5053026;28;20021;-60
2021/05/31 04:51:43;;;;;;;4.25;3.65;;;20.00;59.50;;;;;;5051767;28;20044;-60
2021/05/31 04:54:09;;;;;;;3.95;3.50;;;19.90;59.40;;;;;;5052976;28;20017;-60
2021/05/31 04:56:35;;;;;;;4.95;3.15;;;;;;;;;;5051678;28;20075;-60
2021/05/31 04:59:00;;;;;;;4.90;3.50;;;19.90;58.80;;;;;;5053091;28;20104;-60
2021/05/31 05:01:26;;;;;;;4.32;3.38;;;20.00;59.50;;;;;;5052705;28;20100;-60
2021/05/31 05:03:51;;;;;;;3.78;3.40;;;19.60;59.30;;;;;;5052531;28;20059;-59
2021/05/31 05:06:17;;;;;;;5.57;3.10;;;19.80;59.30;;;;;;5051485;28;20025;-60
2021/05/31 05:08:43;;;;;;;4.43;3.45;;;19.90;59.40;;;;;;5052965;28;20439;-59
2021/05/31 05:11:09;;;;;;;5.47;3.65;;;19.80;59.30;;;;;;5052562;28;20025;-59
2021/05/31 05:13:34;;;;;;;4.93;3.42;;;19.90;59.40;;;;;;5052944;28;20102;-59
2021/05/31 05:16:00;;;;;;;4.20;3.40;;;19.70;59.30;;;;;;5052833;28;20028;-59
2021/05/31 05:18:26;;;;;;;3.65;3.35;;;19.50;59.20;;;;;;5052605;28;20044;-60
2021/05/31 05:20:51;;;;;;;5.50;3.40;;;19.60;59.30;;;;;;5052716;28;20017;-59
2021/05/31 05:23:17;;;;;;;3.47;3.17;;;19.90;59.40;;;;;;5051608;28;20384;-59
2021/05/31 05:25:45;;;;;;;3.85;3.10;;;19.80;59.50;;;;;;5052682;28;20052;-59
2021/05/31 05:28:11;;;;;;;3.83;3.45;;;19.80;60.00;;;;;;5052692;28;20063;-59
2021/05/31 05:30:36;;;;;;;4.43;3.28;;;19.90;60.00;;;;;;5052467;28;20025;-59
2021/05/31 05:33:02;;;;;;;4.13;3.55;;;19.60;59.90;;;;;;5052387;28;20052;-59
2021/05/31 05:35:53;;;;;;;3.80;3.47;;;19.90;60.00;;;;;;5052365;28;20025;-59
2021/05/31 05:48:25;;;;;;;5.93;3.28;;;19.90;60.10;;;;;;5052607;28;20025;-59
2021/05/31 05:51:04;;;;;;;4.47;3.55;;;19.70;60.00;;;;;;5052517;28;20052;-61
2021/05/31 05:53:30;;;;;;;5.15;3.38;;;19.70;59.90;;;;;;5050993;28;20036;-60
2021/05/31 05:55:55;;;;;;;5.90;3.60;;;20.20;60.20;;;;;;5052519;28;20017;-60
2021/05/31 05:58:27;;;;;;;3.97;3.58;;;20.40;60.40;;;;;;5052244;28;20025;-60
2021/05/31 06:00:52;;;;;;;4.35;3.15;;;19.90;60.40;;;;;;5052575;28;20059;-60
2021/05/31 06:03:18;;;;;;;6.38;3.17;;;19.60;60.30;;;;;;5051965;28;20029;-59
2021/05/31 06:05:43;;;;;;;5.47;3.20;;;19.60;60.10;;;;;;5052456;28;20023;-60
2021/05/31 06:08:09;;;;;;;4.60;3.38;;;19.70;60.30;;;;;;5050906;28;20056;-60
2021/05/31 06:10:35;;;;;;;4.35;3.15;;;20.00;60.60;;;;;;5052389;28;20026;-60
2021/05/31 06:13:00;;;;;;;5.10;3.35;;;19.90;60.90;;;;;;5050771;28;20044;-61
2021/05/31 06:15:26;;;;;;;5.30;3.47;;;19.90;60.80;;;;;;5052236;28;20037;-61
2021/05/31 06:17:51;;;;;;;7.63;3.47;;;19.90;61.00;;;;;;5052256;28;20487;-61
2021/05/31 06:20:17;;;;;;;3.65;2.90;;;19.60;61.00;;;;;;5052269;28;20060;-60
2021/05/31 06:22:42;;;;;;;5.63;3.00;;;20.30;61.90;;;;;;5052614;28;20033;-58
2021/05/31 06:25:09;;;;;;;5.47;2.85;;;19.90;61.40;;;;;;5055952;28;20100;-58
2021/05/31 06:27:36;;;;;;;5.90;3.20;;;19.90;61.30;;;;;;5055726;28;20040;-59
2021/05/31 06:30:03;;;;;;;9.35;3.30;;;20.10;61.30;;;;;;5055741;28;20017;-58
2021/05/31 06:32:29;;;;;;;5.93;3.42;;;19.90;61.40;;;;;;5055957;28;20017;-57
2021/05/31 06:34:56;;;;;;;4.05;3.40;;;19.80;61.20;;;;;;5054630;28;20546;-59
2021/05/31 06:37:21;;;;;;;4.22;3.00;;;19.90;61.20;;;;;;5055541;28;20029;-59
2021/05/31 06:39:47;;;;;;;2.97;2.75;;;20.40;62.10;;;;;;5054548;28;20442;-59
2021/05/31 06:42:13;;;;;;;4.47;3.22;;;20.00;61.20;;;;;;5055419;28;20076;-59
2021/05/31 06:44:39;;;;;;;7.03;3.40;;;19.90;61.10;;;;;;5055474;28;20017;-59
2021/05/31 06:47:07;;;;;;;6.70;3.40;;;19.60;61.00;;;;;;5055440;28;20108;-58
2021/05/31 06:49:34;;;;;;;8.48;4.40;;;19.70;61.40;;;;;;5053881;28;20033;-59
2021/05/31 06:51:59;;;;;;;10.93;4.25;;;19.60;61.20;;;;;;5055367;28;20112;-59
2021/05/31 06:54:25;;;;;;;6.50;4.00;;;20.00;61.50;;;;;;5054912;28;20040;-59
2021/05/31 06:56:51;;;;;;;6.68;3.40;;;19.70;61.10;;;;;;5055241;28;20028;-58
2021/05/31 06:59:16;;;;;;;8.70;3.75;;;19.70;61.00;;;;;;5055102;28;20390;-58
2021/05/31 07:01:43;;;;;;;8.38;3.80;;;20.00;61.10;;;;;;5053569;28;20064;-59
2021/05/31 07:04:09;;;;;;;8.15;4.00;;;19.70;60.80;;;;;;5055038;28;20052;-58
2021/05/31 07:06:35;;;;;;;6.35;3.92;;;19.80;60.90;;;;;;5055088;28;20025;-57
2021/05/31 07:09:02;;;;;;;6.13;3.97;;;19.70;60.90;;;;;;5055005;28;20529;-58
2021/05/31 07:11:28;;;;;;;4.60;3.85;;;19.80;60.90;;;;;;5054846;28;20456;-58
2021/05/31 07:13:55;;;;;;;6.55;3.92;;;20.20;61.10;;;;;;5055002;28;20511;-58
2021/05/31 07:16:21;;;;;;;6.07;3.90;;;19.80;61.00;;;;;;5055066;28;20048;-60
2021/05/31 07:18:46;;;;;;;4.45;3.95;;;19.70;61.00;;;;;;5055020;28;20475;-58
2021/05/31 07:21:12;;;;;;;7.03;3.90;;;20.60;61.50;;;;;;5054810;28;20084;-58
2021/05/31 07:23:38;;;;;;;4.07;3.65;;;20.10;61.30;;;;;;5054768;28;20056;-58
2021/05/31 07:26:07;;;;;;;5.40;3.70;;;19.80;61.10;;;;;;5053422;28;20384;-57
2021/05/31 07:28:33;;;;;;;5.72;4.40;;;19.80;61.10;;;;;;5053389;28;20214;-58
2021/05/31 07:31:00;;;;;;;5.47;3.40;;;20.10;61.30;;;;;;5054728;28;20132;-58
2021/05/31 07:33:26;;;;;;;6.78;3.53;;;19.80;61.10;;;;;;5054386;28;20040;-57
2021/05/31 07:35:53;;;;;;;6.53;3.83;;;20.10;61.30;;;;;;5054421;28;20021;-59
2021/05/31 07:38:19;;;;;;;4.32;3.75;;;20.40;61.40;;;;;;5054402;28;20074;-59
2021/05/31 07:40:45;;;;;;;6.00;3.60;;;20.10;61.30;;;;;;5054395;28;20017;-59
2021/05/31 07:43:11;;;;;;;4.25;3.65;;;20.50;61.50;;;;;;5054708;28;20029;-58
2021/05/31 07:45:37;;;;;;;4.45;3.22;;;20.20;61.30;;;;;;5054658;28;20444;-59
2021/05/31 07:48:04;;;;;;;5.45;3.70;;;20.20;61.20;;;;;;5054323;28;20063;-59
2021/05/31 07:50:29;;;;;;;4.78;3.53;;;20.20;61.40;;;;;;5054317;28;20021;-59
2021/05/31 07:52:55;;;;;;;6.40;3.65;;;20.20;61.30;;;;;;5054189;28;20021;-60
2021/05/31 07:55:21;;;;;;;4.50;3.80;;;20.70;61.60;;;;;;5054138;28;20029;-59
2021/05/31 07:57:47;;;;;;;5.50;3.20;;;20.00;61.20;;;;;;5054191;28;20017;-58
2021/05/31 08:00:17;;;;;;;4.78;3.50;;;20.00;61.40;;;;;;5053935;28;20033;-59
2021/05/31 08:02:43;;;;;;;4.30;3.65;;;20.30;61.40;;;;;;5054157;28;20489;-59
2021/05/31 08:05:11;;;;;;;6.28;3.40;;;20.00;61.30;;;;;;5053820;28;20050;-58
2021/05/31 08:07:36;;;;;;;6.25;3.53;;;20.30;61.40;;;;;;5053830;28;20021;-59
2021/05/31 08:10:03;;;;;;;4.07;3.10;;;20.10;61.30;;;;;;5053784;28;20105;-59
2021/05/31 08:12:29;;;;;;;7.93;3.58;;;20.30;61.40;;;;;;5052348;28;20468;-58
2021/05/31 08:14:54;;;;;;;4.13;3.10;;;20.10;61.30;;;;;;5052658;28;20028;-59
2021/05/31 08:17:20;;;;;;;6.80;3.20;;;20.20;61.30;;;;;;5053897;28;20028;-58
2021/05/31 08:19:45;;;;;;;5.22;3.25;;;20.40;61.40;;;;;;5053879;28;20031;-59
2021/05/31 08:22:11;;;;;;;3.80;3.30;;;20.40;61.40;;;;;;5052258;28;20033;-59
2021/05/31 08:24:38;;;;;;;4.10;3.20;;;20.30;61.30;;;;;;5053593;28;20055;-59
2021/05/31 08:27:04;;;;;;;5.47;3.50;;;20.40;61.30;;;;;;5052078;28;20052;-58
2021/05/31 08:29:29;;;;;;;5.70;3.00;;;20.50;61.30;;;;;;5052093;28;20119;-59
2021/05/31 08:31:56;;;;;;;3.33;3.03;;;20.50;61.20;;;;;;5053569;28;20113;-59
2021/05/31 08:34:23;;;;;;;6.82;3.20;;;20.30;61.10;;;;;;5053643;28;20036;-59
2021/05/31 08:36:48;;;;;;;6.50;3.10;;;20.90;62.00;;;;;;5053129;28;20028;-59
2021/05/31 08:39:15;;;;;;;3.95;2.92;;;20.30;61.00;;;;;;5053084;28;20017;-59
2021/05/31 08:41:41;;;;;;;4.47;2.75;;;20.30;60.90;;;;;;5053362;28;20033;-58
2021/05/31 08:44:07;;;;;;;5.68;3.13;;;20.60;61.10;;;;;;5053202;28;20031;-58
2021/05/31 08:46:34;;;;;;;7.13;2.92;;;20.40;60.90;;;;;;5051314;28;20493;-58
2021/05/31 08:49:01;;;;;;;3.92;2.85;;;21.10;61.20;;;;;;5051760;28;20124;-59
2021/05/31 08:51:27;;;;;;;2.80;2.50;;;20.40;60.70;;;;;;5053213;28;20014;-58
2021/05/31 08:53:52;;;;;;;2.97;2.55;;;20.40;60.70;;;;;;5053125;28;20054;-58
2021/05/31 08:56:18;;;;;;;2.78;2.47;;;20.70;60.80;;;;;;5052782;28;20154;-59
2021/05/31 08:58:45;;;;;;;3.08;2.67;;;20.70;60.80;;;;;;5053030;28;20028;-58
2021/05/31 09:01:10;;;;;;;4.72;2.40;;;;;;;;;;5052617;28;20032;-58
2021/05/31 09:03:37;;;;;;;3.85;2.60;;;20.80;60.00;;;;;;5051516;28;20041;-58
2021/05/31 09:06:04;;;;;;;3.22;2.35;;;20.70;60.40;;;;;;5052981;28;20028;-58
2021/05/31 09:08:31;;;;;;;2.53;2.03;;;20.90;60.50;;;;;;5052888;28;20101;-58
2021/05/31 09:11:07;;;;;;;3.35;2.45;;;21.00;60.80;;;;;;5052900;28;20116;-58
2021/05/31 09:13:40;;;;;;;5.07;2.28;;;21.00;60.30;;;;;;5052823;28;20021;-57
2021/05/31 09:16:14;;;;;;;3.00;2.70;;;21.00;60.10;;;;;;5052699;28;20498;-58
2021/05/31 09:18:44;;;;;;;5.90;2.55;;;21.00;60.00;;;;;;5053145;28;20024;-58
2021/05/31 09:21:17;;;;;;;3.10;2.08;;;21.10;60.00;;;;;;5052552;28;20112;-58
2021/05/31 09:23:43;;;;;;;3.72;2.38;;;21.10;59.90;;;;;;5052609;28;20040;-59
2021/05/31 09:26:09;;;;;;;2.92;2.00;;;20.90;59.80;;;;;;5052713;28;20364;-59
2021/05/31 09:28:35;;;;;;;2.70;2.22;;;21.20;59.80;;;;;;5052586;28;20143;-59
2021/05/31 09:31:12;;;;;;;2.55;2.15;;;21.00;59.60;;;;;;5052536;28;20017;-59
2021/05/31 09:33:38;;;;;;;2.92;2.05;;;21.20;59.60;;;;;;5052404;28;20028;-59
2021/05/31 09:36:07;;;;;;;2.47;2.28;;;21.20;59.40;;;;;;5052694;28;20017;-58
2021/05/31 09:38:33;;;;;;;3.58;2.83;;;21.30;59.30;;;;;;5052350;28;20040;-59
2021/05/31 09:40:58;;;;;;;3.10;1.75;;;21.10;59.00;;;;;;5052436;28;20018;-59
2021/05/31 09:43:27;;;;;;;2.58;2.00;;;21.10;59.00;;;;;;5052443;28;20036;-59
2021/05/31 09:45:53;;;;;;;3.95;2.20;;;21.10;58.90;;;;;;5052666;28;20033;-59
2021/05/31 09:48:18;;;;;;;2.10;1.90;;;21.20;58.90;;;;;;5052306;28;20021;-58
2021/05/31 09:50:57;;;;;;;2.80;2.20;;;21.30;58.90;;;;;;5052514;28;20025;-58
2021/05/31 09:53:23;;;;;;;3.70;1.95;;;21.10;58.60;;;;;;5052344;28;20029;-59
2021/05/31 09:55:49;;;;;;;5.93;2.20;;;21.40;58.70;;;;;;5052555;28;20025;-59
2021/05/31 09:58:17;;;;;;;2.58;2.00;;;21.50;58.70;;;;;;5055127;28;20094;-59
2021/05/31 10:00:49;;;;;;;2.28;1.70;;;21.80;58.70;;;;;;5056433;28;20440;-59
2021/05/31 10:11:01;;;;;;;2.05;1.85;;;21.90;58.40;;;;;;5056075;28;20116;-59
2021/05/31 10:13:28;;;;;;;2.45;2.05;;;21.60;58.20;;;;;;5054531;28;20049;-59
2021/05/31 10:15:56;;;;;;;3.00;2.10;;;21.60;58.00;;;;;;5056048;28;20128;-58
2021/05/31 10:18:24;;;;;;;2.88;2.08;;;21.60;57.90;;;;;;5055873;28;20017;-59
2021/05/31 10:20:50;;;;;;;1.90;1.70;;;21.70;57.90;;;;;;5055879;28;20025;-59
2021/05/31 10:23:15;;;;;;;5.95;1.95;;;21.80;57.90;;;;;;5055932;28;20524;-58
2021/05/31 10:25:46;;;;;;;3.03;1.85;;;21.70;57.80;;;;;;5055668;28;20082;-58
2021/05/31 10:28:14;;;;;;;2.90;1.80;;;21.80;57.70;;;;;;5055896;28;20066;-59
2021/05/31 10:30:51;;;;;;;5.05;1.80;;;21.60;57.60;;;;;;5054270;28;20032;-60
2021/05/31 10:33:22;;;;;;;2.90;2.10;;;21.80;57.50;;;;;;5055540;28;20036;-60
2021/05/31 10:35:49;;;;;;;1.85;1.75;;;21.80;57.50;;;;;;5055520;28;20450;-61
2021/05/31 10:38:19;;;;;;;3.22;1.80;;;21.50;57.30;;;;;;5055621;28;20029;-60
2021/05/31 10:40:47;;;;;;;1.67;1.50;;;21.80;57.30;;;;;;5055313;28;20071;-61
2021/05/31 10:43:15;;;;;;;2.85;1.92;;;21.80;57.20;;;;;;5055506;28;20033;-60
2021/05/31 10:45:42;;;;;;;1.88;1.77;;;21.60;57.00;;;;;;5055359;28;20017;-60
2021/05/31 10:48:12;;;;;;;3.80;1.90;;;21.60;56.90;;;;;;5055158;28;20032;-60
2021/05/31 10:50:42;;;;;;;5.90;1.45;;;21.90;56.90;;;;;;5055519;28;20036;-60
2021/05/31 10:53:32;;;;;;;3.45;1.88;;;21.70;56.90;;;;;;5055151;28;20486;-60
2021/05/31 10:55:59;;;;;;;2.42;1.85;;;21.90;56.80;;;;;;5055341;28;20066;-60
2021/05/31 10:58:48;;;;;;;2.90;1.73;;;21.60;56.60;;;;;;5054994;28;20159;-60
2021/05/31 11:01:17;;;;;;;2.90;1.83;;;21.90;56.70;;;;;;5055147;28;20021;-60
2021/05/31 11:03:52;;;;;;;2.78;1.85;;;21.80;56.50;;;;;;5053230;28;20101;-60
2021/05/31 11:06:20;;;;;;;2.15;1.90;;;22.50;56.80;;;;;;5054866;28;20033;-60
2021/05/31 11:08:54;;;;;;;3.90;2.17;;;21.80;56.40;;;;;;5053038;28;20425;-60
2021/05/31 11:11:34;;;;;;;4.10;1.95;;;21.90;56.20;;;;;;5055015;28;20502;-60
2021/05/31 11:14:00;;;;;;;2.53;1.83;;;22.00;56.10;;;;;;5055175;28;20025;-58
2021/05/31 11:16:27;;;;;;;4.00;2.15;;;22.00;56.00;;;;;;5054890;28;20463;-61
2021/05/31 11:18:58;;;;;;;1.92;1.70;;;21.80;55.70;;;;;;5055154;28;20025;-61
2021/05/31 11:21:26;;;;;;;3.47;1.88;;;22.10;55.80;;;;;;5054607;28;20491;-61
2021/05/31 11:24:07;;;;;;;2.10;1.70;;;22.10;55.80;;;;;;5055115;28;20048;-61
2021/05/31 11:26:35;;;;;;;5.18;2.05;;;22.10;55.50;;;;;;5054809;28;20021;-60
2021/05/31 11:29:04;;;;;;;2.53;1.70;;;22.20;55.60;;;;;;5055016;28;20021;-61
2021/05/31 11:31:30;;;;;;;2.47;1.73;;;22.20;55.60;;;;;;5053354;28;20447;-61
2021/05/31 11:33:57;;;;;;;2.67;1.80;;;22.60;55.80;;;;;;5054869;28;20021;-60
2021/05/31 11:36:33;;;;;;;2.38;1.80;;;22.00;55.50;;;;;;5054701;28;20110;-61
2021/05/31 11:39:00;;;;;;;4.22;1.73;;;22.90;55.90;;;;;;5054491;28;20021;-60
2021/05/31 11:41:39;;;;;;;2.38;1.58;;;22.10;55.40;;;;;;5054383;28;20072;-61
2021/05/31 11:44:06;;;;;;;3.05;1.73;;;22.20;55.40;;;;;;5054445;28;20025;-61
2021/05/31 11:46:50;;;;;;;2.42;1.98;;;22.20;55.30;;;;;;5054353;28;20492;-60
2021/05/31 11:49:17;;;;;;;1.63;1.45;;;22.20;55.20;;;;;;5054327;28;20484;-61
2021/05/31 11:51:56;;;;;;;2.33;1.50;;;22.30;55.30;;;;;;5053037;28;20109;-61
2021/05/31 11:54:23;;;;;;;4.13;2.13;;;22.30;55.20;;;;;;5054458;28;20028;-61
2021/05/31 11:56:49;;;;;;;2.95;2.22;;;22.30;55.20;;;;;;5054121;28;20032;-61
2021/05/31 11:59:18;;;;;;;1.92;1.58;;;22.30;55.10;;;;;;5054170;28;20025;-61
2021/05/31 12:01:54;;;;;;;1.73;1.63;;;22.30;55.10;;;;;;5053443;28;20464;-61
2021/05/31 12:04:23;;;;;;;3.17;1.80;;;22.30;55.00;;;;;;5052165;28;20056;-61
2021/05/31 12:06:56;;;;;;;2.00;1.77;;;22.30;55.00;;;;;;5053733;28;20542;-61
2021/05/31 12:09:22;;;;;;;2.10;1.77;;;22.40;55.10;;;;;;5054091;28;20075;-61
2021/05/31 12:11:50;;;;;;;1.92;1.83;;;22.30;55.00;;;;;;5053731;28;20025;-61
2021/05/31 12:14:19;;;;;;;2.28;2.00;;;22.30;54.90;;;;;;5052401;28;20547;-61
2021/05/31 12:16:53;;;;;;;1.98;1.52;;;22.30;54.90;;;;;;5053779;28;20387;-61
2021/05/31 12:19:18;;;;;;;2.72;2.00;;;22.30;54.90;;;;;;5053740;28;20024;-61
2021/05/31 12:21:44;;;;;;;4.35;2.45;;;22.30;54.90;;;;;;5052780;28;20032;-62
2021/05/31 12:24:10;;;;;;;2.00;1.70;;;22.30;54.90;;;;;;5052252;28;20017;-62
2021/05/31 12:26:40;;;;;;;2.45;1.95;;;22.40;54.80;;;;;;5053414;28;20048;-62
2021/05/31 12:29:12;;;;;;;3.97;1.83;;;22.40;54.80;;;;;;5053370;28;20032;-60
2021/05/31 12:31:38;;;;;;;2.42;1.48;;;22.90;55.00;;;;;;5053224;28;20467;-60
2021/05/31 12:34:03;;;;;;;2.53;1.42;;;22.40;54.60;;;;;;5053660;28;20075;-60
2021/05/31 12:36:30;;;;;;;2.38;2.00;;;22.40;54.60;;;;;;5053544;28;20025;-61
2021/05/31 12:38:57;;;;;;;1.85;1.55;;;22.40;54.70;;;;;;5053172;28;20387;-61
2021/05/31 12:41:23;;;;;;;2.20;2.00;;;22.50;54.70;;;;;;5053045;28;20028;-60
2021/05/31 12:43:49;;;;;;;2.72;1.80;;;22.40;54.50;;;;;;5053399;28;20033;-60
2021/05/31 12:46:17;;;;;;;2.15;1.92;;;22.40;54.40;;;;;;5053075;28;20032;-61
2021/05/31 12:48:46;;;;;;;2.63;1.90;;;22.90;54.50;;;;;;5053343;28;20036;-61
2021/05/31 12:51:15;;;;;;;1.73;1.63;;;22.50;54.30;;;;;;5053379;28;20025;-61
2021/05/31 12:53:42;;;;;;;1.90;1.70;;;22.20;54.20;;;;;;5053303;28;20077;-60
2021/05/31 12:56:08;;;;;;;3.50;2.00;;;22.80;54.50;;;;;;5053092;28;20017;-61
2021/05/31 12:58:33;;;;;;;2.60;1.70;;;22.40;54.30;;;;;;5051438;28;20551;-61
2021/05/31 13:00:59;;;;;;;1.60;1.50;;;23.00;54.60;;;;;;5052699;28;20160;-61
2021/05/31 13:03:34;;;;;;;2.38;1.75;;;22.40;54.50;;;;;;5052292;28;20072;-61
2021/05/31 13:06:00;;;;;;;5.63;1.65;;;22.30;54.80;;;;;;5052967;28;20051;-61
2021/05/31 13:08:38;;;;;;;4.38;2.10;;;23.00;55.30;;;;;;5052786;28;20025;-61
2021/05/31 13:11:03;;;;;;;2.45;2.00;;;22.50;55.00;;;;;;5052925;28;20025;-61
2021/05/31 13:13:34;;;;;;;1.73;1.63;;;22.50;55.00;;;;;;5051293;28;20024;-61
2021/05/31 13:16:02;;;;;;;3.05;1.60;;;22.80;55.30;;;;;;5052754;28;20040;-61